createdAt,value
2019-03-12T00:01:56.468Z,2.80
2019-03-12T00:04:27.696Z,2.78
2019-03-12T00:06:59.109Z,2.71
2019-03-12T00:09:30.257Z,2.73
2019-03-12T00:12:01.622Z,2.68
2019-03-12T00:14:32.792Z,2.63
2019-03-12T00:17:03.840Z,2.60
2019-03-12T00:19:36.002Z,2.57
2019-03-12T00:22:07.253Z,2.66
2019-03-12T00:24:38.600Z,2.56
2019-03-12T00:27:09.789Z,2.65
2019-03-12T00:29:40.941Z,2.71
2019-03-12T00:32:12.160Z,2.73
2019-03-12T00:34:43.193Z,2.66
2019-03-12T00:37:14.566Z,2.67
2019-03-12T00:39:45.640Z,2.64
2019-03-12T00:42:16.752Z,2.58
2019-03-12T00:44:48.046Z,2.57
2019-03-12T00:47:19.111Z,2.59
2019-03-12T00:49:50.137Z,2.51
2019-03-12T00:52:21.349Z,2.49
2019-03-12T00:54:52.638Z,2.56
2019-03-12T00:57:23.910Z,2.55
2019-03-12T00:59:56.512Z,2.49
2019-03-12T01:02:29.229Z,2.53
2019-03-12T01:05:00.504Z,2.37
2019-03-12T01:07:31.837Z,2.39
2019-03-12T01:10:02.981Z,2.40
2019-03-12T01:12:34.334Z,2.29
2019-03-12T01:15:07.367Z,2.36
2019-03-12T01:17:38.400Z,2.35
2019-03-12T01:20:12.199Z,2.36
2019-03-12T01:22:43.259Z,2.32
2019-03-12T01:25:14.576Z,2.27
2019-03-12T01:27:45.683Z,2.22
2019-03-12T01:30:17.758Z,2.27
2019-03-12T01:32:49.278Z,2.34
2019-03-12T01:35:20.342Z,2.28
2019-03-12T01:37:51.768Z,2.27
2019-03-12T01:40:22.948Z,2.18
2019-03-12T01:42:54.113Z,2.25
2019-03-12T01:45:25.177Z,2.27
2019-03-12T01:47:56.481Z,2.31
2019-03-12T01:50:28.656Z,2.32
2019-03-12T01:52:59.761Z,2.30
2019-03-12T01:55:30.648Z,2.38
2019-03-12T01:58:01.958Z,2.35
2019-03-12T02:00:33.143Z,2.25
2019-03-12T02:03:05.597Z,2.27
2019-03-12T02:05:38.361Z,2.24
2019-03-12T02:08:09.548Z,2.21
2019-03-12T02:10:40.826Z,2.24
2019-03-12T02:13:12.049Z,2.26
2019-03-12T02:15:43.236Z,2.30
2019-03-12T02:18:14.428Z,2.25
2019-03-12T02:20:45.625Z,2.24
2019-03-12T02:23:17.023Z,2.28
2019-03-12T02:25:48.206Z,2.23
2019-03-12T02:28:20.727Z,2.21
2019-03-12T02:30:52.184Z,2.20
2019-03-12T02:33:23.575Z,2.18
2019-03-12T02:35:54.939Z,2.17
2019-03-12T02:38:26.084Z,2.19
2019-03-12T02:40:57.268Z,2.21
2019-03-12T02:43:28.397Z,2.15
2019-03-12T02:45:59.537Z,2.17
2019-03-12T02:48:30.646Z,2.13
2019-03-12T02:51:02.038Z,2.16
2019-03-12T02:53:33.254Z,2.16
2019-03-12T02:56:04.368Z,2.21
2019-03-12T02:58:35.485Z,2.17
2019-03-12T03:01:08.059Z,2.16
2019-03-12T03:03:39.212Z,2.17
2019-03-12T03:06:11.838Z,2.17
2019-03-12T03:08:43.288Z,2.21
2019-03-12T03:11:14.443Z,2.17
2019-03-12T03:13:45.544Z,2.23
2019-03-12T03:16:16.815Z,2.25
2019-03-12T03:18:48.199Z,2.20
2019-03-12T03:21:19.182Z,2.22
2019-03-12T03:23:50.532Z,2.21
2019-03-12T03:26:21.643Z,2.11
2019-03-12T03:28:52.835Z,2.22
2019-03-12T03:31:24.021Z,2.24
2019-03-12T03:33:55.245Z,2.25
2019-03-12T03:36:26.370Z,2.29
2019-03-12T03:38:57.436Z,2.34
2019-03-12T03:41:28.558Z,2.28
2019-03-12T03:43:59.800Z,2.22
2019-03-12T03:46:30.858Z,2.31
2019-03-12T03:49:02.065Z,2.34
2019-03-12T03:51:33.119Z,2.29
2019-03-12T03:54:05.080Z,2.29
2019-03-12T03:56:36.155Z,2.28
2019-03-12T03:59:07.363Z,2.38
2019-03-12T04:01:38.430Z,2.34
2019-03-12T04:04:09.706Z,2.28
2019-03-12T04:06:40.717Z,2.34
2019-03-12T04:09:12.086Z,2.29
2019-03-12T04:11:43.350Z,2.31
2019-03-12T04:14:14.574Z,2.29
2019-03-12T04:16:45.726Z,2.33
2019-03-12T04:19:16.765Z,2.28
2019-03-12T04:21:47.881Z,2.28
2019-03-12T04:24:19.127Z,2.33
2019-03-12T04:26:51.792Z,2.36
2019-03-12T04:29:22.967Z,2.35
2019-03-12T04:31:54.127Z,2.27
2019-03-12T04:34:25.068Z,2.30
2019-03-12T04:36:56.226Z,2.31
2019-03-12T04:39:27.325Z,2.33
2019-03-12T04:41:58.518Z,2.38
2019-03-12T04:44:29.689Z,2.37
2019-03-12T04:47:00.787Z,2.38
2019-03-12T04:49:32.181Z,2.30
2019-03-12T04:52:03.558Z,2.36
2019-03-12T04:54:34.805Z,2.43
2019-03-12T04:57:06.033Z,2.45
2019-03-12T04:59:37.295Z,2.42
2019-03-12T05:02:08.667Z,2.42
2019-03-12T05:04:39.846Z,2.45
2019-03-12T05:07:12.470Z,2.48
2019-03-12T05:09:44.359Z,2.58
2019-03-12T05:12:15.553Z,2.69
2019-03-12T05:14:46.912Z,2.75
2019-03-12T05:17:18.122Z,2.78
2019-03-12T05:19:49.428Z,2.70
2019-03-12T05:22:20.654Z,2.77
2019-03-12T05:24:52.048Z,2.80
2019-03-12T05:27:24.969Z,2.92
2019-03-12T05:29:59.146Z,2.95
2019-03-12T05:32:30.323Z,2.99
2019-03-12T05:35:01.561Z,2.92
2019-03-12T05:37:32.834Z,3.00
2019-03-12T05:40:07.007Z,2.99
2019-03-12T05:42:38.196Z,3.00
2019-03-12T05:45:17.539Z,3.05
2019-03-12T05:47:48.839Z,3.10
2019-03-12T05:50:21.787Z,3.17
2019-03-12T05:53:05.199Z,3.02
2019-03-12T05:55:36.604Z,3.07
2019-03-12T05:58:08.477Z,3.23
2019-03-12T06:00:39.814Z,3.16
2019-03-12T06:03:11.484Z,3.05
2019-03-12T06:05:43.845Z,2.92
2019-03-12T06:08:15.240Z,2.86
2019-03-12T06:10:46.688Z,2.94
2019-03-12T06:13:17.916Z,2.80
2019-03-12T06:15:49.238Z,2.90
2019-03-12T06:18:20.407Z,2.94
2019-03-12T06:20:51.549Z,3.19
2019-03-12T06:23:22.878Z,3.38
2019-03-12T06:25:54.788Z,3.39
2019-03-12T06:28:25.918Z,3.41
2019-03-12T06:31:11.074Z,3.28
2019-03-12T06:33:49.788Z,3.39
2019-03-12T06:36:37.803Z,3.29
2019-03-12T06:39:29.996Z,3.32
2019-03-12T06:42:18.941Z,3.47
2019-03-12T06:44:51.857Z,3.54
2019-03-12T06:47:24.733Z,3.53
2019-03-12T06:50:00.463Z,3.59
2019-03-12T06:52:33.353Z,3.48
2019-03-12T06:55:19.607Z,3.48
2019-03-12T06:57:58.623Z,3.45
2019-03-12T07:00:32.610Z,3.72
2019-03-12T07:03:08.467Z,3.87
2019-03-12T07:05:50.302Z,3.89
2019-03-12T07:08:35.047Z,3.82
2019-03-12T07:11:13.697Z,3.90
2019-03-12T07:13:49.688Z,3.96
2019-03-12T07:16:22.647Z,3.86
2019-03-12T07:18:58.372Z,3.88
2019-03-12T07:21:34.306Z,3.82
2019-03-12T07:24:13.481Z,3.88
2019-03-12T07:26:58.579Z,3.81
2019-03-12T07:29:46.872Z,3.61
2019-03-12T07:32:19.698Z,3.65
2019-03-12T07:34:53.013Z,3.72
2019-03-12T07:37:28.994Z,3.91
2019-03-12T07:40:08.092Z,4.00
2019-03-12T07:42:41.504Z,4.00
2019-03-12T07:45:17.249Z,4.23
2019-03-12T07:47:53.297Z,4.32
2019-03-12T07:50:26.401Z,4.26
2019-03-12T07:53:02.202Z,4.01
2019-03-12T07:55:47.179Z,3.84
2019-03-12T07:58:19.948Z,3.91
2019-03-12T08:01:04.937Z,4.08
2019-03-12T08:03:59.087Z,4.11
2019-03-12T08:06:46.328Z,4.22
2019-03-12T08:09:35.408Z,4.12
2019-03-12T08:12:08.322Z,4.28
2019-03-12T08:14:47.301Z,4.20
2019-03-12T08:17:26.053Z,4.16
2019-03-12T08:20:01.518Z,4.14
2019-03-12T08:22:34.434Z,4.33
2019-03-12T08:25:13.026Z,4.35
2019-03-12T08:27:45.968Z,4.39
2019-03-12T08:30:21.872Z,4.45
2019-03-12T08:33:10.936Z,4.46
2019-03-12T08:35:56.153Z,4.56
2019-03-12T08:38:30.113Z,4.56
2019-03-12T08:41:02.977Z,4.58
2019-03-12T08:43:40.377Z,4.70
2019-03-12T08:46:25.574Z,4.78
2019-03-12T08:48:59.983Z,4.85
2019-03-12T08:51:38.987Z,4.96
2019-03-12T08:54:14.665Z,5.16
2019-03-12T08:56:50.535Z,5.22
2019-03-12T08:59:33.376Z,5.36
2019-03-12T09:02:15.385Z,5.39
2019-03-12T09:04:56.928Z,5.51
2019-03-12T09:07:32.592Z,5.31
2019-03-12T09:10:15.294Z,5.59
2019-03-12T09:13:04.210Z,5.68
2019-03-12T09:15:46.411Z,5.57
2019-03-12T09:18:35.665Z,5.69
2019-03-12T09:21:08.500Z,5.81
2019-03-12T09:23:44.276Z,5.93
2019-03-12T09:26:32.378Z,5.95
2019-03-12T09:29:08.247Z,5.89
2019-03-12T09:31:50.449Z,5.93
2019-03-12T09:34:23.281Z,6.01
2019-03-12T09:36:56.289Z,5.93
2019-03-12T09:39:32.293Z,6.09
2019-03-12T09:42:05.447Z,6.05
2019-03-12T09:44:38.412Z,5.90
2019-03-12T09:47:17.034Z,6.11
2019-03-12T09:49:55.912Z,6.16
2019-03-12T09:52:41.358Z,6.17
2019-03-12T09:55:19.947Z,6.24
2019-03-12T09:57:52.703Z,6.23
2019-03-12T10:00:34.622Z,6.05
2019-03-12T10:03:10.247Z,5.79
2019-03-12T10:05:51.737Z,5.77
2019-03-12T10:08:30.390Z,5.72
2019-03-12T10:11:09.544Z,5.68
2019-03-12T10:13:43.242Z,5.93
2019-03-12T10:16:32.589Z,5.95
2019-03-12T10:19:05.597Z,6.12
2019-03-12T10:21:38.311Z,5.95
2019-03-12T10:24:17.931Z,6.02
2019-03-12T10:26:53.509Z,5.92
2019-03-12T10:29:29.206Z,5.74
2019-03-12T10:32:01.935Z,5.82
2019-03-12T10:34:34.774Z,6.07
2019-03-12T10:37:12.511Z,6.05
2019-03-12T10:40:06.677Z,6.22
2019-03-12T10:42:55.122Z,6.35
2019-03-12T10:45:28.186Z,6.29
2019-03-12T10:48:04.076Z,6.21
2019-03-12T10:50:35.500Z,6.62
2019-03-12T10:53:06.635Z,6.61
2019-03-12T10:55:37.834Z,6.49
2019-03-12T10:58:09.107Z,6.52
2019-03-12T11:00:40.884Z,6.53
2019-03-12T11:03:12.087Z,6.54
2019-03-12T11:05:46.244Z,6.68
2019-03-12T11:08:15.831Z,6.79
2019-03-12T11:10:46.946Z,6.69
2019-03-12T11:13:18.112Z,6.58
2019-03-12T11:15:49.273Z,6.72
2019-03-12T11:18:20.583Z,6.38
2019-03-12T11:20:51.810Z,6.36
2019-03-12T11:23:22.973Z,6.50
2019-03-12T11:25:54.253Z,6.51
2019-03-12T11:28:28.394Z,6.70
2019-03-12T11:30:59.572Z,6.82
2019-03-12T11:33:30.786Z,6.94
2019-03-12T11:36:01.874Z,6.70
2019-03-12T11:38:33.750Z,6.97
2019-03-12T11:41:05.089Z,6.85
2019-03-12T11:43:36.123Z,6.97
2019-03-12T11:46:07.291Z,6.85
2019-03-12T11:48:38.443Z,6.95
2019-03-12T11:51:09.773Z,6.96
2019-03-12T11:53:41.605Z,6.71
2019-03-12T11:56:12.910Z,6.50
2019-03-12T12:02:28.051Z,6.82
2019-03-12T12:04:59.291Z,6.73
2019-03-12T12:07:32.624Z,6.73
2019-03-12T12:10:07.585Z,6.80
2019-03-12T12:12:40.086Z,6.86
2019-03-12T12:15:15.539Z,6.88
2019-03-12T12:17:49.229Z,6.95
2019-03-12T12:20:28.812Z,7.17
2019-03-12T12:22:52.371Z,6.95
2019-03-12T12:25:23.808Z,7.00
2019-03-12T12:27:55.172Z,6.98
2019-03-12T12:30:26.305Z,7.17
2019-03-12T12:32:59.043Z,7.24
2019-03-12T12:35:30.241Z,7.14
2019-03-12T12:38:01.943Z,7.23
2019-03-12T12:40:33.271Z,7.15
2019-03-12T12:43:04.493Z,7.10
2019-03-12T12:45:38.214Z,6.98
2019-03-12T12:48:09.291Z,6.95
2019-03-12T12:50:40.414Z,6.75
2019-03-12T12:53:11.650Z,6.83
2019-03-12T12:55:43.253Z,6.88
2019-03-12T12:58:14.556Z,6.88
2019-03-12T13:00:45.838Z,6.92
2019-03-12T13:03:16.854Z,6.84
2019-03-12T13:05:47.824Z,6.72
2019-03-12T13:08:19.368Z,6.65
2019-03-12T13:10:50.617Z,6.77
2019-03-12T13:13:21.741Z,6.86
2019-03-12T13:15:53.676Z,6.69
2019-03-12T13:18:24.924Z,6.73
2019-03-12T13:20:56.031Z,6.77
2019-03-12T13:23:27.187Z,6.83
2019-03-12T13:25:59.648Z,6.67
2019-03-12T13:28:30.819Z,6.63
2019-03-12T13:31:02.499Z,6.57
2019-03-12T13:33:35.221Z,6.60
2019-03-12T13:36:08.312Z,6.69
2019-03-12T13:38:45.436Z,6.54
2019-03-12T13:41:12.452Z,6.45
2019-03-12T13:43:44.636Z,6.53
2019-03-12T13:46:16.120Z,6.58
2019-03-12T13:48:47.274Z,6.52
2019-03-12T13:51:18.511Z,6.44
2019-03-12T13:53:49.917Z,6.38
2019-03-12T13:56:21.042Z,6.32
2019-03-12T13:58:52.577Z,6.20
2019-03-12T14:01:23.655Z,6.29
2019-03-12T14:03:54.959Z,6.34
2019-03-12T14:06:26.099Z,6.37
2019-03-12T14:08:57.326Z,6.36
2019-03-12T14:11:28.505Z,6.37
2019-03-12T14:13:59.684Z,6.34
2019-03-12T14:16:32.502Z,6.35
2019-03-12T14:19:03.987Z,6.36
2019-03-12T14:21:40.437Z,6.34
2019-03-12T14:24:11.543Z,6.22
2019-03-12T14:26:43.052Z,6.01
2019-03-12T14:29:14.477Z,6.03
2019-03-12T14:31:46.051Z,5.99
2019-03-12T14:34:17.599Z,5.93
2019-03-12T14:36:48.648Z,5.87
2019-03-12T14:39:20.235Z,5.79
2019-03-12T14:41:51.240Z,5.87
2019-03-12T14:44:22.319Z,5.84
2019-03-12T14:46:54.069Z,5.81
2019-03-12T14:49:25.533Z,5.80
2019-03-12T14:52:02.742Z,5.80
2019-03-12T14:54:34.062Z,5.86
2019-03-12T14:57:05.282Z,5.80
2019-03-12T14:59:36.613Z,5.77
2019-03-12T15:02:07.699Z,5.74
2019-03-12T15:04:38.892Z,5.75
2019-03-12T15:07:10.438Z,5.75
2019-03-12T15:09:41.692Z,5.65
2019-03-12T15:12:14.344Z,5.68
2019-03-12T15:14:45.677Z,5.66
2019-03-12T15:17:16.871Z,5.64
2019-03-12T15:19:48.030Z,5.67
2019-03-12T15:22:19.172Z,5.64
2019-03-12T15:24:50.328Z,5.64
2019-03-12T15:27:21.404Z,5.62
2019-03-12T15:29:52.466Z,5.62
2019-03-12T15:32:24.571Z,5.65
2019-03-12T15:34:55.663Z,5.61
2019-03-12T15:37:29.662Z,5.66
2019-03-12T15:40:01.224Z,5.59
2019-03-12T15:42:33.913Z,5.60
2019-03-12T15:45:07.982Z,5.61
2019-03-12T15:47:39.211Z,5.65
2019-03-12T15:50:14.978Z,5.65
2019-03-12T15:52:46.163Z,5.54
2019-03-12T15:55:17.374Z,5.53
2019-03-12T15:57:48.806Z,5.56
2019-03-12T16:00:20.168Z,5.64
2019-03-12T16:02:51.521Z,5.62
2019-03-12T16:05:22.871Z,5.56
2019-03-12T16:07:55.348Z,5.53
2019-03-12T16:10:26.943Z,5.41
2019-03-12T16:12:58.379Z,5.53
2019-03-12T16:15:30.705Z,5.44
2019-03-12T16:18:02.011Z,5.48
2019-03-12T16:20:33.334Z,5.31
2019-03-12T16:23:04.734Z,5.29
2019-03-12T16:25:35.989Z,5.27
2019-03-12T16:28:07.537Z,5.32
2019-03-12T16:30:39.154Z,5.33
2019-03-12T16:33:10.423Z,5.27
2019-03-12T16:35:41.801Z,5.30
2019-03-12T16:38:13.401Z,5.20
2019-03-12T16:40:44.867Z,5.28
2019-03-12T16:43:16.232Z,5.23
2019-03-12T16:45:47.723Z,5.21
2019-03-12T16:48:19.102Z,5.27
2019-03-12T16:50:50.247Z,5.16
2019-03-12T16:53:21.580Z,5.16
2019-03-12T16:55:52.900Z,5.18
2019-03-12T16:58:24.229Z,5.10
2019-03-12T17:00:55.680Z,5.02
2019-03-12T17:03:27.069Z,5.07
2019-03-12T17:05:58.470Z,5.04
2019-03-12T17:08:29.816Z,5.09
2019-03-12T17:11:03.079Z,5.13
2019-03-12T17:13:34.643Z,5.12
2019-03-12T17:16:06.127Z,5.08
2019-03-12T17:18:37.720Z,5.10
2019-03-12T17:21:09.352Z,5.12
2019-03-12T17:23:40.871Z,5.11
2019-03-12T17:26:12.264Z,5.02
2019-03-12T17:28:44.963Z,5.01
2019-03-12T17:31:16.907Z,5.09
2019-03-12T17:33:48.600Z,5.13
2019-03-12T17:36:21.157Z,5.11
2019-03-12T17:38:52.592Z,5.05
2019-03-12T17:41:25.154Z,5.03
2019-03-12T17:43:57.892Z,5.14
2019-03-12T17:46:29.515Z,5.27
2019-03-12T17:49:00.626Z,5.32
2019-03-12T17:51:31.970Z,5.28
2019-03-12T17:54:03.244Z,5.13
2019-03-12T17:56:34.617Z,5.11
2019-03-12T17:59:06.091Z,5.16
2019-03-12T18:01:37.586Z,5.17
2019-03-12T18:04:08.906Z,5.19
2019-03-12T18:06:40.405Z,5.27
2019-03-12T18:09:11.828Z,5.26
2019-03-12T18:11:44.106Z,5.14
2019-03-12T18:14:15.607Z,5.15
2019-03-12T18:16:47.005Z,5.16
2019-03-12T18:19:18.386Z,5.11
2019-03-12T18:21:49.910Z,5.13
2019-03-12T18:24:21.489Z,5.11
2019-03-12T18:26:53.075Z,5.21
2019-03-12T18:29:25.661Z,5.23
2019-03-12T18:31:57.096Z,5.17
2019-03-12T18:34:28.667Z,5.16
2019-03-12T18:37:00.235Z,5.22
2019-03-12T18:39:32.686Z,5.17
2019-03-12T18:42:04.421Z,5.14
2019-03-12T18:44:36.068Z,5.15
2019-03-12T18:47:08.712Z,5.08
2019-03-12T18:49:50.836Z,4.97
2019-03-12T18:52:22.389Z,5.05
2019-03-12T18:54:53.648Z,5.02
2019-03-12T18:57:26.784Z,5.08
2019-03-12T18:59:58.190Z,5.14
2019-03-12T19:02:29.588Z,4.92
2019-03-12T19:05:01.053Z,4.93
2019-03-12T19:07:32.463Z,4.96
2019-03-12T19:10:03.868Z,4.96
2019-03-12T19:12:35.353Z,4.91
2019-03-12T19:15:12.034Z,4.94
2019-03-12T19:17:43.414Z,4.95
2019-03-12T19:20:18.367Z,4.78
2019-03-12T19:22:50.071Z,4.73
2019-03-12T19:25:27.554Z,4.78
2019-03-12T19:28:00.667Z,4.74
2019-03-12T19:30:33.229Z,4.59
2019-03-12T19:33:16.783Z,4.59
2019-03-12T19:35:49.594Z,4.55
2019-03-12T19:38:21.117Z,4.57
2019-03-12T19:40:57.119Z,4.57
2019-03-12T19:43:28.757Z,4.34
2019-03-12T19:46:00.497Z,4.35
2019-03-12T19:48:32.046Z,4.42
2019-03-12T19:51:03.681Z,4.50
2019-03-12T19:53:35.223Z,4.41
2019-03-12T19:56:09.178Z,4.47
2019-03-12T19:58:40.835Z,4.45
2019-03-12T20:01:12.311Z,4.38
2019-03-12T20:03:43.754Z,4.38
2019-03-12T20:06:15.439Z,4.29
2019-03-12T20:08:47.304Z,4.39
2019-03-12T20:11:33.900Z,4.33
2019-03-12T20:14:29.974Z,4.36
2019-03-12T20:17:39.357Z,4.40
2019-03-12T20:20:37.482Z,4.34
2019-03-12T20:23:26.879Z,4.18
2019-03-12T20:26:10.686Z,4.15
2019-03-12T20:29:02.251Z,4.18
2019-03-12T20:32:01.301Z,4.23
2019-03-12T20:34:41.559Z,4.06
2019-03-12T20:37:49.622Z,4.17
2019-03-12T20:40:41.022Z,4.16
2019-03-12T20:43:27.669Z,4.19
2019-03-12T20:46:38.439Z,4.15
2019-03-12T20:49:37.342Z,4.08
2019-03-12T20:52:42.143Z,3.95
2019-03-12T20:55:31.811Z,4.03
2019-03-12T20:58:11.510Z,3.98
2019-03-12T21:01:23.918Z,3.96
2019-03-12T21:04:18.000Z,3.95
2019-03-12T21:07:15.276Z,3.91
2019-03-12T21:10:09.433Z,3.86
2019-03-12T21:13:02.060Z,3.97
2019-03-12T21:15:45.800Z,4.08
2019-03-12T21:18:42.795Z,4.09
2019-03-12T21:21:24.930Z,4.06
2019-03-12T21:24:35.510Z,4.04
2019-03-12T21:27:25.866Z,3.95
2019-03-12T21:29:56.125Z,3.98
2019-03-12T21:32:27.973Z,4.03
2019-03-12T21:35:02.445Z,4.02
2019-03-12T21:37:35.440Z,4.01
2019-03-12T21:40:09.710Z,3.95
2019-03-12T21:42:41.059Z,3.92
2019-03-12T21:45:12.412Z,3.96
2019-03-12T21:47:46.396Z,3.92
2019-03-12T21:50:19.515Z,3.90
2019-03-12T21:52:51.079Z,3.91
2019-03-12T21:55:22.738Z,3.90
2019-03-12T21:57:54.246Z,3.89
2019-03-12T22:00:25.991Z,3.89
2019-03-12T22:02:57.120Z,3.90
2019-03-12T22:05:28.624Z,3.84
2019-03-12T22:07:59.718Z,3.76
2019-03-12T22:10:31.122Z,3.81
2019-03-12T22:13:02.274Z,3.85
2019-03-12T22:15:34.588Z,3.80
2019-03-12T22:18:05.727Z,3.76
2019-03-12T22:20:37.460Z,3.82
2019-03-12T22:23:11.271Z,3.90
2019-03-12T22:25:42.888Z,3.90
2019-03-12T22:28:14.245Z,3.94
2019-03-12T22:30:49.747Z,3.96
2019-03-12T22:33:21.192Z,3.98
2019-03-12T22:35:52.591Z,3.83
2019-03-12T22:38:26.067Z,3.86
2019-03-12T22:40:57.460Z,3.83
2019-03-12T22:43:28.603Z,3.85
2019-03-12T22:45:59.787Z,3.93
2019-03-12T22:48:31.072Z,3.90
2019-03-12T22:51:02.259Z,3.88
2019-03-12T22:53:33.589Z,3.88
2019-03-12T22:56:04.978Z,3.73
2019-03-12T22:58:36.197Z,3.80
2019-03-12T23:01:25.018Z,3.65
2019-03-12T23:04:14.183Z,3.74
2019-03-12T23:07:03.143Z,3.72
2019-03-12T23:09:45.580Z,3.73
2019-03-12T23:12:22.284Z,3.75
2019-03-12T23:14:54.361Z,3.66
2019-03-12T23:17:28.020Z,3.66
2019-03-12T23:19:59.356Z,3.61
2019-03-12T23:22:31.343Z,3.61
2019-03-12T23:25:02.815Z,3.60
2019-03-12T23:27:35.850Z,3.54
2019-03-12T23:30:23.266Z,3.54
2019-03-12T23:32:54.595Z,3.49
2019-03-12T23:35:25.696Z,3.53
2019-03-12T23:37:57.010Z,3.42
2019-03-12T23:40:28.498Z,3.43
2019-03-12T23:43:00.405Z,3.38
2019-03-12T23:45:31.465Z,3.45
2019-03-12T23:48:02.648Z,3.41
2019-03-12T23:50:33.884Z,3.32
2019-03-12T23:53:05.096Z,3.39
2019-03-12T23:55:36.269Z,3.39
2019-03-12T23:58:07.626Z,3.38
